createdAt,value
2019-04-04T00:00:45.151Z,89.21
2019-04-04T00:03:21.238Z,89.49
2019-04-04T00:05:58.129Z,89.40
2019-04-04T00:08:33.710Z,89.42
2019-04-04T00:11:08.847Z,89.34
2019-04-04T00:13:44.081Z,89.23
2019-04-04T00:16:22.813Z,89.12
2019-04-04T00:18:59.122Z,89.10
2019-04-04T00:21:34.829Z,89.15
2019-04-04T00:24:10.103Z,88.89
2019-04-04T00:26:45.198Z,88.73
2019-04-04T00:29:20.265Z,88.61
2019-04-04T00:31:55.258Z,88.62
2019-04-04T00:34:30.312Z,88.62
2019-04-04T00:37:05.350Z,88.91
2019-04-04T00:39:40.497Z,89.08
2019-04-04T00:42:16.968Z,89.20
2019-04-04T00:44:53.868Z,88.53
2019-04-04T00:47:32.354Z,88.57
2019-04-04T00:50:10.361Z,88.40
2019-04-04T00:52:45.318Z,88.35
2019-04-04T00:55:20.328Z,89.10
2019-04-04T00:57:55.365Z,89.13
2019-04-04T01:00:30.404Z,89.17
2019-04-04T01:03:05.515Z,89.49
2019-04-04T01:05:40.548Z,89.56
2019-04-04T01:08:15.538Z,89.26
2019-04-04T01:10:50.527Z,88.97
2019-04-04T01:13:27.563Z,89.15
2019-04-04T01:16:03.295Z,89.18
2019-04-04T01:18:38.402Z,88.96
2019-04-04T01:21:13.516Z,89.03
2019-04-04T01:23:48.510Z,89.25
2019-04-04T01:26:23.645Z,89.30
2019-04-04T01:28:59.615Z,89.16
2019-04-04T01:31:35.388Z,89.03
2019-04-04T01:34:10.494Z,89.59
2019-04-04T01:36:45.534Z,89.44
2019-04-04T01:39:20.666Z,89.27
2019-04-04T01:41:55.647Z,89.27
2019-04-04T01:44:30.945Z,89.55
2019-04-04T01:47:06.328Z,89.43
2019-04-04T01:49:41.389Z,89.31
2019-04-04T01:52:16.404Z,89.20
2019-04-04T01:54:51.488Z,89.25
2019-04-04T01:57:26.544Z,89.18
2019-04-04T02:00:01.721Z,89.27
2019-04-04T02:02:38.070Z,89.18
2019-04-04T02:05:13.735Z,89.17
2019-04-04T02:07:49.454Z,89.21
2019-04-04T02:10:24.330Z,88.76
2019-04-04T02:13:02.720Z,89.10
2019-04-04T02:15:37.736Z,88.87
2019-04-04T02:18:12.804Z,89.19
2019-04-04T02:20:47.750Z,89.82
2019-04-04T02:23:22.840Z,89.66
2019-04-04T02:25:57.814Z,89.52
2019-04-04T02:28:33.542Z,89.39
2019-04-04T02:31:09.301Z,89.93
2019-04-04T02:33:44.498Z,89.71
2019-04-04T02:36:19.527Z,89.58
2019-04-04T02:39:13.200Z,89.70
2019-04-04T02:41:49.309Z,89.56
2019-04-04T02:44:24.242Z,89.10
2019-04-04T02:46:59.205Z,88.82
2019-04-04T02:49:34.474Z,88.80
2019-04-04T02:52:12.819Z,88.80
2019-04-04T02:54:46.249Z,88.72
2019-04-04T02:57:21.319Z,88.53
2019-04-04T02:59:56.276Z,88.62
2019-04-04T03:02:31.251Z,88.80
2019-04-04T03:05:06.525Z,89.07
2019-04-04T03:07:43.732Z,89.13
2019-04-04T03:10:18.689Z,89.02
2019-04-04T03:12:58.033Z,89.11
2019-04-04T03:15:31.012Z,88.87
2019-04-04T03:18:06.352Z,88.39
2019-04-04T03:20:41.416Z,88.32
2019-04-04T03:23:16.383Z,88.26
2019-04-04T03:25:51.458Z,88.23
2019-04-04T03:28:31.363Z,88.12
2019-04-04T03:31:03.949Z,88.02
2019-04-04T03:33:40.771Z,87.97
2019-04-04T03:36:15.753Z,88.05
2019-04-04T03:38:50.952Z,88.28
2019-04-04T03:41:27.607Z,88.52
2019-04-04T03:44:02.684Z,88.57
2019-04-04T03:46:38.999Z,88.48
2019-04-04T03:49:14.374Z,88.13
2019-04-04T03:51:49.357Z,87.97
2019-04-04T03:54:26.603Z,88.05
2019-04-04T03:57:01.979Z,88.00
2019-04-04T03:59:37.240Z,88.02
2019-04-04T04:02:12.423Z,88.25
2019-04-04T04:04:47.469Z,88.17
2019-04-04T04:07:22.847Z,88.29
2019-04-04T04:09:59.808Z,88.20
2019-04-04T04:12:34.965Z,88.10
2019-04-04T04:15:10.708Z,87.77
2019-04-04T04:17:46.557Z,87.97
2019-04-04T04:20:21.848Z,88.19
2019-04-04T04:22:56.930Z,88.09
2019-04-04T04:25:35.105Z,87.92
2019-04-04T04:28:08.989Z,87.95
2019-04-04T04:30:44.370Z,88.01
2019-04-04T04:33:19.448Z,87.94
2019-04-04T04:35:54.439Z,87.81
2019-04-04T04:38:29.459Z,87.87
2019-04-04T04:41:04.542Z,87.99
2019-04-04T04:43:40.260Z,87.96
2019-04-04T04:46:17.804Z,87.86
2019-04-04T04:48:52.085Z,88.79
2019-04-04T04:51:27.088Z,88.85
2019-04-04T04:54:02.287Z,88.78
2019-04-04T04:56:37.292Z,88.85
2019-04-04T04:59:13.234Z,89.20
2019-04-04T05:01:50.639Z,89.45
2019-04-04T05:04:27.827Z,89.36
2019-04-04T05:07:02.638Z,89.13
2019-04-04T05:09:37.631Z,89.02
2019-04-04T05:12:12.786Z,88.98
2019-04-04T05:14:47.738Z,88.94
2019-04-04T05:17:22.818Z,89.03
2019-04-04T05:19:57.751Z,89.23
2019-04-04T05:22:33.498Z,89.15
2019-04-04T05:25:09.112Z,89.00
2019-04-04T05:27:45.537Z,89.09
2019-04-04T05:30:20.718Z,89.24
2019-04-04T05:32:56.492Z,89.09
2019-04-04T05:35:33.434Z,89.31
2019-04-04T05:38:12.144Z,88.99
2019-04-04T05:40:45.721Z,88.83
2019-04-04T05:43:20.730Z,88.62
2019-04-04T05:45:55.908Z,88.51
2019-04-04T05:48:30.905Z,88.56
2019-04-04T05:51:06.214Z,88.38
2019-04-04T05:53:41.411Z,88.25
2019-04-04T05:56:16.493Z,88.15
2019-04-04T05:58:53.132Z,88.20
2019-04-04T06:01:29.103Z,88.07
2019-04-04T06:04:04.491Z,88.00
2019-04-04T06:06:39.711Z,87.72
2019-04-04T06:09:15.031Z,87.74
2019-04-04T06:11:50.905Z,87.78
2019-04-04T06:14:27.940Z,87.69
2019-04-04T06:17:05.105Z,87.58
2019-04-04T06:19:40.633Z,87.89
2019-04-04T06:22:15.799Z,88.12
2019-04-04T06:24:52.208Z,87.84
2019-04-04T06:27:29.684Z,87.88
2019-04-04T06:30:06.261Z,87.94
2019-04-04T06:32:42.521Z,87.56
2019-04-04T06:35:19.086Z,87.13
2019-04-04T06:37:55.318Z,86.63
2019-04-04T06:40:30.926Z,87.30
2019-04-04T06:43:12.048Z,87.24
2019-04-04T06:45:47.566Z,87.14
2019-04-04T06:48:22.953Z,87.48
2019-04-04T06:50:58.186Z,87.59
2019-04-04T06:53:33.959Z,87.58
2019-04-04T06:56:08.961Z,87.44
2019-04-04T06:58:44.563Z,87.18
2019-04-04T07:01:21.989Z,87.01
2019-04-04T07:03:59.461Z,87.27
2019-04-04T07:06:34.349Z,87.38
2019-04-04T07:09:13.268Z,87.11
2019-04-04T07:11:47.301Z,86.77
2019-04-04T07:14:22.507Z,86.41
2019-04-04T07:16:57.582Z,86.31
2019-04-04T07:19:32.895Z,86.35
2019-04-04T07:22:07.888Z,86.39
2019-04-04T07:24:43.204Z,86.07
2019-04-04T07:27:18.163Z,85.91
2019-04-04T07:29:56.593Z,85.80
2019-04-04T07:32:29.949Z,85.81
2019-04-04T07:35:05.265Z,85.16
2019-04-04T07:37:40.265Z,85.06
2019-04-04T07:40:15.281Z,85.00
2019-04-04T07:42:50.313Z,85.09
2019-04-04T07:45:26.981Z,84.82
2019-04-04T07:48:02.294Z,84.61
2019-04-04T07:50:40.143Z,84.39
2019-04-04T07:53:16.105Z,84.11
2019-04-04T07:55:51.971Z,83.15
2019-04-04T07:58:26.943Z,83.07
2019-04-04T08:01:03.573Z,82.28
2019-04-04T08:03:38.587Z,82.80
2019-04-04T08:06:13.719Z,83.18
2019-04-04T08:08:48.713Z,83.59
2019-04-04T08:11:24.079Z,83.38
2019-04-04T08:13:59.067Z,83.39
2019-04-04T08:16:34.257Z,83.05
2019-04-04T08:19:09.426Z,82.86
2019-04-04T08:21:44.403Z,82.33
2019-04-04T08:24:19.407Z,81.71
2019-04-04T08:26:54.370Z,82.05
2019-04-04T08:29:29.375Z,81.73
2019-04-04T08:32:04.717Z,81.99
2019-04-04T08:34:40.381Z,82.69
2019-04-04T08:37:15.357Z,83.00
2019-04-04T08:39:50.378Z,83.57
2019-04-04T08:42:25.437Z,84.07
2019-04-04T08:45:00.434Z,83.81
2019-04-04T08:47:35.581Z,83.78
2019-04-04T08:50:10.983Z,83.15
2019-04-04T08:52:45.971Z,83.10
2019-04-04T08:55:21.343Z,83.75
2019-04-04T08:57:56.411Z,83.32
2019-04-04T09:00:32.310Z,83.61
2019-04-04T09:03:07.283Z,83.71
2019-04-04T09:05:42.479Z,83.40
2019-04-04T09:08:17.427Z,83.65
2019-04-04T09:10:52.630Z,82.88
2019-04-04T09:13:27.627Z,82.06
2019-04-04T09:16:02.987Z,80.35
2019-04-04T09:18:38.919Z,80.31
2019-04-04T09:21:14.035Z,80.57
2019-04-04T09:23:49.093Z,79.78
2019-04-04T09:26:24.120Z,79.36
2019-04-04T09:28:59.115Z,79.08
2019-04-04T09:31:34.431Z,79.10
2019-04-04T09:34:09.513Z,79.09
2019-04-04T09:36:44.786Z,78.78
2019-04-04T09:39:19.792Z,77.82
2019-04-04T09:41:54.793Z,78.63
2019-04-04T09:44:29.769Z,79.03
2019-04-04T09:47:05.846Z,76.90
2019-04-04T09:49:40.977Z,77.80
2019-04-04T09:52:15.995Z,77.45
2019-04-04T09:54:52.669Z,78.30
2019-04-04T09:57:27.689Z,77.96
2019-04-04T10:00:04.830Z,78.49
2019-04-04T10:02:42.119Z,78.00
2019-04-04T10:05:18.527Z,76.96
2019-04-04T10:07:53.808Z,76.66
2019-04-04T10:10:29.725Z,75.93
2019-04-04T10:13:04.777Z,76.12
2019-04-04T10:15:40.843Z,77.36
2019-04-04T10:18:16.031Z,76.55
2019-04-04T10:20:51.139Z,78.13
2019-04-04T10:23:26.622Z,79.00
2019-04-04T10:26:01.887Z,78.31
2019-04-04T10:28:37.039Z,77.82
2019-04-04T10:31:12.197Z,78.20
2019-04-04T10:33:48.092Z,77.47
2019-04-04T10:36:23.229Z,78.36
2019-04-04T10:38:58.585Z,78.45
2019-04-04T10:41:34.272Z,79.44
2019-04-04T10:44:10.806Z,79.24
2019-04-04T10:46:45.893Z,78.75
2019-04-04T10:49:21.049Z,78.01
2019-04-04T10:51:56.128Z,77.99
2019-04-04T10:54:34.496Z,78.20
2019-04-04T10:57:09.724Z,78.96
2019-04-04T10:59:44.815Z,78.39
2019-04-04T11:02:19.881Z,78.19
2019-04-04T11:04:55.232Z,77.36
2019-04-04T11:07:30.894Z,77.65
2019-04-04T11:10:07.875Z,76.77
2019-04-04T11:12:44.493Z,76.53
2019-04-04T11:15:19.527Z,76.16
2019-04-04T11:17:54.699Z,76.18
2019-04-04T11:20:30.004Z,74.52
2019-04-04T11:23:05.071Z,75.20
2019-04-04T11:25:40.285Z,74.57
2019-04-04T11:28:15.396Z,75.15
2019-04-04T11:30:50.428Z,72.29
2019-04-04T11:33:27.536Z,72.50
2019-04-04T11:36:03.006Z,72.05
2019-04-04T11:38:38.075Z,71.00
2019-04-04T11:41:13.359Z,72.25
2019-04-04T11:43:48.478Z,70.36
2019-04-04T11:46:23.741Z,69.15
2019-04-04T11:48:58.789Z,68.98
2019-04-04T11:51:34.297Z,68.84
2019-04-04T11:54:09.499Z,69.96
2019-04-04T11:56:44.477Z,69.35
2019-04-04T11:59:19.547Z,70.09
2019-04-04T12:01:54.752Z,71.48
2019-04-04T12:04:29.782Z,72.19
2019-04-04T12:07:04.957Z,73.52
2019-04-04T12:09:40.001Z,74.53
2019-04-04T12:12:15.233Z,75.37
2019-04-04T12:14:50.244Z,74.97
2019-04-04T12:17:25.411Z,75.52
2019-04-04T12:20:00.433Z,75.97
2019-04-04T12:22:35.504Z,75.80
2019-04-04T12:25:11.037Z,76.33
2019-04-04T12:27:46.041Z,75.89
2019-04-04T12:30:21.535Z,76.00
2019-04-04T12:32:56.584Z,75.55
2019-04-04T12:35:31.861Z,75.95
2019-04-04T12:38:10.278Z,76.35
2019-04-04T12:40:46.100Z,76.40
2019-04-04T12:43:21.189Z,76.82
2019-04-04T12:45:57.615Z,75.88
2019-04-04T12:48:32.985Z,76.49
2019-04-04T12:51:08.047Z,76.92
2019-04-04T12:53:43.893Z,76.77
2019-04-04T12:56:19.130Z,76.31
2019-04-04T12:58:55.121Z,77.34
2019-04-04T13:01:30.147Z,78.14
2019-04-04T13:04:05.111Z,78.48
2019-04-04T13:06:40.114Z,77.84
2019-04-04T13:09:15.187Z,78.61
2019-04-04T13:11:50.235Z,77.45
2019-04-04T13:14:25.399Z,77.27
2019-04-04T13:17:00.403Z,77.72
2019-04-04T13:19:35.588Z,76.05
2019-04-04T13:22:10.588Z,76.61
2019-04-04T13:24:45.606Z,75.21
2019-04-04T13:27:20.734Z,74.27
2019-04-04T13:29:55.703Z,73.53
2019-04-04T13:32:30.722Z,73.80
2019-04-04T13:35:06.148Z,73.85
2019-04-04T13:37:41.307Z,74.67
2019-04-04T13:40:16.756Z,74.97
2019-04-04T13:42:53.095Z,75.03
2019-04-04T13:45:28.511Z,74.64
2019-04-04T13:48:05.334Z,75.73
2019-04-04T13:50:40.324Z,75.68
2019-04-04T13:53:15.373Z,75.19
2019-04-04T13:55:50.352Z,75.65
2019-04-04T13:58:25.360Z,75.54
2019-04-04T14:01:00.330Z,75.42
2019-04-04T14:03:35.438Z,75.46
2019-04-04T14:06:10.428Z,76.42
2019-04-04T14:08:46.177Z,75.76
2019-04-04T14:11:21.268Z,75.96
2019-04-04T14:13:58.704Z,76.08
2019-04-04T14:16:33.769Z,76.44
2019-04-04T14:19:10.204Z,75.88
2019-04-04T14:21:45.386Z,75.68
2019-04-04T14:24:21.522Z,76.63
2019-04-04T14:26:56.577Z,76.25
2019-04-04T14:29:31.795Z,76.46
2019-04-04T14:32:06.775Z,76.05
2019-04-04T14:34:42.040Z,76.59
2019-04-04T14:37:17.049Z,75.72
2019-04-04T14:39:52.147Z,75.95
2019-04-04T14:42:27.218Z,76.02
2019-04-04T14:45:02.899Z,76.37
2019-04-04T14:47:38.015Z,76.23
2019-04-04T14:50:13.530Z,76.24
2019-04-04T14:52:51.794Z,75.96
2019-04-04T14:55:26.012Z,76.74
2019-04-04T14:58:01.072Z,76.39
2019-04-04T15:00:36.122Z,76.91
2019-04-04T15:03:11.316Z,77.62
2019-04-04T15:05:46.326Z,78.29
2019-04-04T15:08:21.538Z,77.86
2019-04-04T15:10:56.531Z,78.60
2019-04-04T15:13:31.744Z,78.27
2019-04-04T15:16:18.986Z,78.50
2019-04-04T15:18:54.131Z,79.11
2019-04-04T15:21:29.146Z,79.04
2019-04-04T15:24:10.372Z,78.59
2019-04-04T15:26:45.380Z,78.53
2019-04-04T15:29:20.503Z,78.71
2019-04-04T15:31:55.492Z,78.26
2019-04-04T15:34:30.586Z,78.40
2019-04-04T15:37:05.629Z,78.82
2019-04-04T15:39:41.806Z,78.88
2019-04-04T15:42:17.790Z,78.57
2019-04-04T15:44:53.081Z,79.25
2019-04-04T15:47:28.262Z,79.78
2019-04-04T15:50:07.348Z,79.54
2019-04-04T15:52:44.268Z,79.17
2019-04-04T15:55:19.462Z,78.79
2019-04-04T15:57:54.449Z,78.59
2019-04-04T16:00:29.466Z,79.22
2019-04-04T16:03:04.488Z,79.81
2019-04-04T16:05:40.522Z,80.03
2019-04-04T16:08:15.494Z,79.21
2019-04-04T16:10:50.564Z,78.83
2019-04-04T16:13:28.312Z,78.92
2019-04-04T16:16:03.642Z,80.44
2019-04-04T16:18:38.654Z,79.37
2019-04-04T16:21:13.883Z,78.96
2019-04-04T16:23:48.889Z,78.28
2019-04-04T16:26:24.044Z,77.81
2019-04-04T16:28:59.110Z,78.35
2019-04-04T16:31:34.639Z,78.48
2019-04-04T16:34:09.907Z,77.76
2019-04-04T16:36:44.902Z,77.61
2019-04-04T16:39:22.347Z,75.80
2019-04-04T16:42:02.470Z,77.71
2019-04-04T16:44:34.832Z,77.18
2019-04-04T16:47:09.856Z,78.87
2019-04-04T16:49:45.028Z,78.33
2019-04-04T16:52:20.163Z,78.40
2019-04-04T16:54:55.168Z,78.64
2019-04-04T16:57:30.502Z,79.23
2019-04-04T17:00:08.666Z,79.72
2019-04-04T17:02:43.943Z,79.30
2019-04-04T17:05:19.950Z,79.97
2019-04-04T17:07:58.980Z,78.47
2019-04-04T17:10:34.327Z,78.98
2019-04-04T17:13:10.632Z,79.82
2019-04-04T17:15:46.373Z,79.82
2019-04-04T17:18:21.667Z,79.64
2019-04-04T17:24:08.414Z,79.75
2019-04-04T17:26:44.806Z,79.58
2019-04-04T17:29:20.957Z,79.99
2019-04-04T17:31:56.079Z,80.65
2019-04-04T17:34:54.006Z,80.83
2019-04-04T17:37:36.446Z,81.43
2019-04-04T17:40:13.040Z,80.64
2019-04-04T17:42:49.828Z,81.58
2019-04-04T17:45:25.240Z,81.97
2019-04-04T17:48:00.464Z,81.83
2019-04-04T17:50:35.656Z,81.46
2019-04-04T17:53:10.978Z,81.48
2019-04-04T17:55:46.466Z,82.02
2019-04-04T17:58:22.276Z,82.22
2019-04-04T18:00:57.311Z,82.69
2019-04-04T18:03:32.914Z,81.74
2019-04-04T18:06:08.226Z,82.03
2019-04-04T18:08:43.480Z,81.61
2019-04-04T18:11:20.182Z,82.13
2019-04-04T18:13:55.280Z,81.74
2019-04-04T18:16:30.301Z,82.13
2019-04-04T18:19:05.372Z,82.04
2019-04-04T18:21:40.485Z,81.58
2019-04-04T18:24:15.553Z,81.09
2019-04-04T18:26:50.575Z,81.44
2019-04-04T18:29:25.683Z,81.81
2019-04-04T18:32:00.675Z,81.45
2019-04-04T18:34:35.922Z,81.46
2019-04-04T18:37:11.080Z,81.66
2019-04-04T18:39:46.244Z,81.89
2019-04-04T18:42:21.343Z,82.18
2019-04-04T18:45:00.677Z,81.95
2019-04-04T18:47:35.973Z,81.70
2019-04-04T18:50:13.360Z,82.11
2019-04-04T18:52:48.547Z,81.70
2019-04-04T18:55:23.686Z,82.25
2019-04-04T18:57:58.662Z,82.35
2019-04-04T19:00:34.058Z,82.59
2019-04-04T19:03:09.097Z,82.48
2019-04-04T19:05:44.243Z,82.73
2019-04-04T19:08:19.368Z,82.58
2019-04-04T19:10:54.429Z,82.62
2019-04-04T19:13:43.760Z,82.89
2019-04-04T19:16:09.480Z,82.50
2019-04-04T19:18:44.717Z,83.08
2019-04-04T19:21:23.006Z,82.77
2019-04-04T19:23:58.247Z,83.09
2019-04-04T19:26:34.086Z,82.93
2019-04-04T19:29:09.159Z,82.92
2019-04-04T19:31:44.341Z,82.91
2019-04-04T19:34:19.409Z,83.00
2019-04-04T19:36:54.420Z,82.96
2019-04-04T19:39:29.427Z,83.19
2019-04-04T19:42:05.076Z,82.91
2019-04-04T19:44:53.224Z,83.01
2019-04-04T19:47:20.518Z,82.75
2019-04-04T19:49:55.650Z,82.84
2019-04-04T19:52:30.703Z,82.83
2019-04-04T19:55:05.819Z,83.40
2019-04-04T19:57:41.704Z,83.11
2019-04-04T20:00:17.024Z,82.77
2019-04-04T20:02:52.173Z,82.77
2019-04-04T20:05:27.245Z,82.50
2019-04-04T20:08:02.683Z,82.75
2019-04-04T20:10:37.770Z,83.03
2019-04-04T20:13:13.540Z,82.97
2019-04-04T20:15:48.645Z,82.96
2019-04-04T20:18:23.721Z,83.42
2019-04-04T20:20:58.957Z,82.96
2019-04-04T20:23:34.332Z,82.32
2019-04-04T20:26:12.856Z,82.41
2019-04-04T20:28:50.019Z,82.50
2019-04-04T20:31:25.104Z,82.77
2019-04-04T20:34:01.758Z,82.53
2019-04-04T20:36:36.928Z,82.54
2019-04-04T20:39:12.359Z,82.48
2019-04-04T20:41:47.379Z,81.90
2019-04-04T20:44:22.811Z,82.18
2019-04-04T20:46:57.804Z,82.07
2019-04-04T20:49:33.004Z,82.37
2019-04-04T20:52:08.004Z,82.49
2019-04-04T20:54:43.198Z,82.37
2019-04-04T20:57:18.259Z,82.55
2019-04-04T20:59:53.453Z,82.00
2019-04-04T21:02:28.476Z,81.40
2019-04-04T21:05:03.591Z,81.32
2019-04-04T21:07:38.712Z,81.65
2019-04-04T21:10:13.789Z,82.01
2019-04-04T21:12:58.512Z,82.27
2019-04-04T21:15:33.815Z,81.81
2019-04-04T21:18:08.893Z,82.02
2019-04-04T21:20:44.005Z,81.80
2019-04-04T21:23:19.813Z,82.11
2019-04-04T21:25:56.573Z,82.31
2019-04-04T21:28:32.967Z,81.93
2019-04-04T21:31:07.959Z,81.49
2019-04-04T21:33:43.498Z,81.76
2019-04-04T21:36:18.538Z,81.77
2019-04-04T21:38:53.663Z,81.94
2019-04-04T21:41:29.722Z,82.53
2019-04-04T21:44:09.095Z,82.07
2019-04-04T21:46:41.771Z,82.98
2019-04-04T21:49:16.772Z,83.26
2019-04-04T21:51:51.889Z,84.77
2019-04-04T21:54:29.627Z,84.74
2019-04-04T21:57:04.679Z,84.69
2019-04-04T21:59:39.667Z,84.98
2019-04-04T22:02:14.721Z,85.83
2019-04-04T22:04:49.691Z,87.19
2019-04-04T22:07:24.700Z,86.70
2019-04-04T22:09:59.716Z,87.18
2019-04-04T22:12:35.046Z,87.28
2019-04-04T22:15:10.538Z,86.84
2019-04-04T22:17:45.682Z,86.81
2019-04-04T22:20:21.858Z,87.12
2019-04-04T22:22:56.888Z,87.40
2019-04-04T22:25:32.123Z,87.42
2019-04-04T22:28:08.102Z,87.38
2019-04-04T22:30:43.908Z,86.76
2019-04-04T22:33:18.983Z,86.25
2019-04-04T22:35:54.139Z,87.51
2019-04-04T22:38:29.202Z,87.37
2019-04-04T22:41:04.419Z,87.59
2019-04-04T22:43:39.462Z,87.48
2019-04-04T22:46:14.647Z,87.19
2019-04-04T22:48:49.701Z,87.11
2019-04-04T22:51:24.722Z,86.97
2019-04-04T22:53:59.797Z,87.35
2019-04-04T22:56:35.155Z,87.59
2019-04-04T22:59:10.379Z,88.10
2019-04-04T23:01:45.417Z,88.61
2019-04-04T23:04:21.483Z,87.89
2019-04-04T23:06:56.511Z,87.87
2019-04-04T23:09:31.778Z,87.88
2019-04-04T23:12:06.954Z,87.13
2019-04-04T23:14:47.894Z,87.42
2019-04-04T23:17:18.944Z,88.10
2019-04-04T23:19:54.084Z,87.98
2019-04-04T23:22:29.276Z,87.81
2019-04-04T23:25:04.650Z,87.84
2019-04-04T23:27:40.064Z,88.23
2019-04-04T23:30:15.668Z,88.53
2019-04-04T23:32:50.863Z,88.18
2019-04-04T23:35:25.911Z,88.09
2019-04-04T23:38:00.913Z,87.67
2019-04-04T23:40:36.210Z,88.13
2019-04-04T23:43:11.365Z,87.85
2019-04-04T23:45:46.504Z,87.63
2019-04-04T23:48:21.768Z,87.66
2019-04-04T23:50:56.810Z,87.56
2019-04-04T23:53:32.206Z,87.58
2019-04-04T23:56:07.240Z,88.04
2019-04-04T23:58:43.571Z,88.51
